sensor_id;sensor_type;location;lat;lon;timestamp;P1;durP1;ratioP1;P2;durP2;ratioP2
10383;SDS011;5238;43.508;4.980;2023-12-14T00:00:10;2.50;;;1.63;;
10383;SDS011;5238;43.508;4.980;2023-12-14T00:02:37;3.03;;;2.10;;
10383;SDS011;5238;43.508;4.980;2023-12-14T00:05:04;2.20;;;2.00;;
10383;SDS011;5238;43.508;4.980;2023-12-14T00:07:32;2.35;;;1.50;;
10383;SDS011;5238;43.508;4.980;2023-12-14T00:09:59;1.33;;;1.20;;
10383;SDS011;5238;43.508;4.980;2023-12-14T00:12:26;2.15;;;1.33;;
10383;SDS011;5238;43.508;4.980;2023-12-14T00:14:53;2.25;;;1.58;;
10383;SDS011;5238;43.508;4.980;2023-12-14T00:17:21;3.58;;;1.55;;
10383;SDS011;5238;43.508;4.980;2023-12-14T00:19:48;1.45;;;1.33;;
10383;SDS011;5238;43.508;4.980;2023-12-14T00:22:15;1.73;;;1.60;;
10383;SDS011;5238;43.508;4.980;2023-12-14T00:24:42;2.10;;;1.35;;
10383;SDS011;5238;43.508;4.980;2023-12-14T00:27:09;3.53;;;1.50;;
10383;SDS011;5238;43.508;4.980;2023-12-14T00:29:36;1.38;;;1.27;;
10383;SDS011;5238;43.508;4.980;2023-12-14T00:32:03;1.50;;;1.35;;
10383;SDS011;5238;43.508;4.980;2023-12-14T00:34:32;2.20;;;1.23;;
10383;SDS011;5238;43.508;4.980;2023-12-14T00:36:59;1.65;;;1.55;;
10383;SDS011;5238;43.508;4.980;2023-12-14T00:39:26;1.33;;;1.20;;
10383;SDS011;5238;43.508;4.980;2023-12-14T00:41:53;1.63;;;1.40;;
10383;SDS011;5238;43.508;4.980;2023-12-14T00:44:20;3.03;;;1.42;;
10383;SDS011;5238;43.508;4.980;2023-12-14T00:46:47;1.30;;;1.20;;
10383;SDS011;5238;43.508;4.980;2023-12-14T00:49:13;1.75;;;1.10;;
10383;SDS011;5238;43.508;4.980;2023-12-14T00:51:44;1.58;;;1.20;;
10383;SDS011;5238;43.508;4.980;2023-12-14T00:54:11;1.42;;;1.30;;
10383;SDS011;5238;43.508;4.980;2023-12-14T00:56:38;1.73;;;1.60;;
10383;SDS011;5238;43.508;4.980;2023-12-14T00:59:05;2.03;;;1.83;;
10383;SDS011;5238;43.508;4.980;2023-12-14T01:01:32;2.40;;;1.67;;
10383;SDS011;5238;43.508;4.980;2023-12-14T01:03:59;3.33;;;2.20;;
10383;SDS011;5238;43.508;4.980;2023-12-14T01:06:26;5.15;;;2.20;;
10383;SDS011;5238;43.508;4.980;2023-12-14T01:08:54;3.08;;;1.98;;
10383;SDS011;5238;43.508;4.980;2023-12-14T01:11:21;2.35;;;2.00;;
10383;SDS011;5238;43.508;4.980;2023-12-14T01:13:48;3.28;;;2.15;;
10383;SDS011;5238;43.508;4.980;2023-12-14T01:16:15;3.13;;;2.38;;
10383;SDS011;5238;43.508;4.980;2023-12-14T01:18:42;2.55;;;2.00;;
10383;SDS011;5238;43.508;4.980;2023-12-14T01:21:09;2.67;;;2.10;;
10383;SDS011;5238;43.508;4.980;2023-12-14T01:23:37;2.10;;;1.90;;
10383;SDS011;5238;43.508;4.980;2023-12-14T01:26:06;1.92;;;1.70;;
10383;SDS011;5238;43.508;4.980;2023-12-14T01:28:33;2.03;;;1.83;;
10383;SDS011;5238;43.508;4.980;2023-12-14T01:31:00;2.00;;;1.80;;
10383;SDS011;5238;43.508;4.980;2023-12-14T01:33:26;1.50;;;1.40;;
10383;SDS011;5238;43.508;4.980;2023-12-14T01:35:53;1.58;;;1.48;;
10383;SDS011;5238;43.508;4.980;2023-12-14T01:38:20;1.88;;;1.77;;
10383;SDS011;5238;43.508;4.980;2023-12-14T01:40:47;2.15;;;1.63;;
10383;SDS011;5238;43.508;4.980;2023-12-14T01:43:16;1.85;;;1.63;;
10383;SDS011;5238;43.508;4.980;2023-12-14T01:45:43;3.10;;;1.70;;
10383;SDS011;5238;43.508;4.980;2023-12-14T01:48:10;3.40;;;2.30;;
10383;SDS011;5238;43.508;4.980;2023-12-14T01:50:37;6.47;;;4.10;;
10383;SDS011;5238;43.508;4.980;2023-12-14T01:53:04;8.73;;;4.45;;
10383;SDS011;5238;43.508;4.980;2023-12-14T01:55:31;6.45;;;5.40;;
10383;SDS011;5238;43.508;4.980;2023-12-14T01:57:58;5.47;;;4.38;;
10383;SDS011;5238;43.508;4.980;2023-12-14T02:00:28;5.80;;;4.47;;
10383;SDS011;5238;43.508;4.980;2023-12-14T02:03:02;3.20;;;2.90;;
10383;SDS011;5238;43.508;4.980;2023-12-14T02:05:29;2.67;;;2.05;;
10383;SDS011;5238;43.508;4.980;2023-12-14T02:07:56;1.88;;;1.73;;
10383;SDS011;5238;43.508;4.980;2023-12-14T02:10:23;1.70;;;1.60;;
10383;SDS011;5238;43.508;4.980;2023-12-14T02:12:50;1.92;;;1.60;;
10383;SDS011;5238;43.508;4.980;2023-12-14T02:15:18;2.65;;;1.70;;
10383;SDS011;5238;43.508;4.980;2023-12-14T02:17:46;2.25;;;2.05;;
10383;SDS011;5238;43.508;4.980;2023-12-14T02:20:13;2.95;;;2.47;;
10383;SDS011;5238;43.508;4.980;2023-12-14T02:22:51;2.13;;;1.92;;
10383;SDS011;5238;43.508;4.980;2023-12-14T02:25:18;3.13;;;2.25;;
10383;SDS011;5238;43.508;4.980;2023-12-14T02:27:46;2.30;;;2.08;;
10383;SDS011;5238;43.508;4.980;2023-12-14T02:30:14;3.78;;;1.85;;
10383;SDS011;5238;43.508;4.980;2023-12-14T02:32:41;2.13;;;1.80;;
10383;SDS011;5238;43.508;4.980;2023-12-14T02:35:08;2.58;;;2.38;;
10383;SDS011;5238;43.508;4.980;2023-12-14T02:37:35;3.30;;;2.03;;
10383;SDS011;5238;43.508;4.980;2023-12-14T02:40:07;2.20;;;1.63;;
10383;SDS011;5238;43.508;4.980;2023-12-14T02:42:35;2.38;;;2.00;;
10383;SDS011;5238;43.508;4.980;2023-12-14T02:45:02;2.85;;;1.92;;
10383;SDS011;5238;43.508;4.980;2023-12-14T02:47:30;2.45;;;1.90;;
10383;SDS011;5238;43.508;4.980;2023-12-14T02:49:57;2.00;;;1.58;;
10383;SDS011;5238;43.508;4.980;2023-12-14T02:52:23;2.70;;;1.45;;
10383;SDS011;5238;43.508;4.980;2023-12-14T02:54:51;1.90;;;1.67;;
10383;SDS011;5238;43.508;4.980;2023-12-14T02:57:19;2.80;;;1.63;;
10383;SDS011;5238;43.508;4.980;2023-12-14T02:59:46;2.45;;;1.42;;
10383;SDS011;5238;43.508;4.980;2023-12-14T03:02:13;2.00;;;1.80;;
10383;SDS011;5238;43.508;4.980;2023-12-14T03:04:40;2.50;;;2.30;;
10383;SDS011;5238;43.508;4.980;2023-12-14T03:07:07;1.92;;;1.40;;
10383;SDS011;5238;43.508;4.980;2023-12-14T03:09:34;1.75;;;1.33;;
10383;SDS011;5238;43.508;4.980;2023-12-14T03:12:01;1.73;;;1.58;;
10383;SDS011;5238;43.508;4.980;2023-12-14T03:14:32;2.22;;;1.40;;
10383;SDS011;5238;43.508;4.980;2023-12-14T03:16:59;1.63;;;1.48;;
10383;SDS011;5238;43.508;4.980;2023-12-14T03:19:27;1.75;;;1.55;;
10383;SDS011;5238;43.508;4.980;2023-12-14T03:21:54;2.08;;;1.98;;
10383;SDS011;5238;43.508;4.980;2023-12-14T03:24:21;2.22;;;1.95;;
10383;SDS011;5238;43.508;4.980;2023-12-14T03:26:48;2.10;;;1.55;;
10383;SDS011;5238;43.508;4.980;2023-12-14T03:29:16;2.05;;;1.85;;
10383;SDS011;5238;43.508;4.980;2023-12-14T03:31:44;2.17;;;1.73;;
10383;SDS011;5238;43.508;4.980;2023-12-14T03:34:11;1.92;;;1.77;;
10383;SDS011;5238;43.508;4.980;2023-12-14T03:36:38;1.50;;;1.40;;
10383;SDS011;5238;43.508;4.980;2023-12-14T03:39:05;2.00;;;1.80;;
10383;SDS011;5238;43.508;4.980;2023-12-14T03:41:32;1.50;;;1.40;;
10383;SDS011;5238;43.508;4.980;2023-12-14T03:43:59;1.42;;;1.33;;
10383;SDS011;5238;43.508;4.980;2023-12-14T03:46:26;1.30;;;1.20;;
10383;SDS011;5238;43.508;4.980;2023-12-14T03:48:55;1.75;;;1.63;;
10383;SDS011;5238;43.508;4.980;2023-12-14T03:51:22;1.60;;;1.50;;
10383;SDS011;5238;43.508;4.980;2023-12-14T03:53:49;1.80;;;1.20;;
10383;SDS011;5238;43.508;4.980;2023-12-14T03:56:16;1.77;;;1.45;;
10383;SDS011;5238;43.508;4.980;2023-12-14T03:58:43;1.90;;;1.80;;
10383;SDS011;5238;43.508;4.980;2023-12-14T04:01:14;1.92;;;1.42;;
10383;SDS011;5238;43.508;4.980;2023-12-14T04:03:42;1.60;;;1.50;;
10383;SDS011;5238;43.508;4.980;2023-12-14T04:06:12;1.38;;;1.20;;
10383;SDS011;5238;43.508;4.980;2023-12-14T04:08:39;1.77;;;1.67;;
10383;SDS011;5238;43.508;4.980;2023-12-14T04:11:06;2.35;;;1.55;;
10383;SDS011;5238;43.508;4.980;2023-12-14T04:13:33;1.25;;;1.15;;
10383;SDS011;5238;43.508;4.980;2023-12-14T04:16:01;1.50;;;1.40;;
10383;SDS011;5238;43.508;4.980;2023-12-14T04:18:29;1.63;;;1.52;;
10383;SDS011;5238;43.508;4.980;2023-12-14T04:20:56;1.42;;;1.33;;
10383;SDS011;5238;43.508;4.980;2023-12-14T04:23:24;1.95;;;1.38;;
10383;SDS011;5238;43.508;4.980;2023-12-14T04:25:52;1.30;;;1.20;;
10383;SDS011;5238;43.508;4.980;2023-12-14T04:28:19;1.50;;;1.40;;
10383;SDS011;5238;43.508;4.980;2023-12-14T04:30:46;1.50;;;1.40;;
10383;SDS011;5238;43.508;4.980;2023-12-14T04:33:13;1.95;;;1.85;;
10383;SDS011;5238;43.508;4.980;2023-12-14T04:35:40;2.30;;;1.85;;
10383;SDS011;5238;43.508;4.980;2023-12-14T04:38:07;2.50;;;1.85;;
10383;SDS011;5238;43.508;4.980;2023-12-14T04:40:35;1.83;;;1.40;;
10383;SDS011;5238;43.508;4.980;2023-12-14T04:43:02;1.88;;;1.40;;
10383;SDS011;5238;43.508;4.980;2023-12-14T04:45:29;1.90;;;1.65;;
10383;SDS011;5238;43.508;4.980;2023-12-14T04:47:56;1.98;;;1.50;;
10383;SDS011;5238;43.508;4.980;2023-12-14T04:50:23;2.17;;;1.52;;
10383;SDS011;5238;43.508;4.980;2023-12-14T04:52:50;2.13;;;1.58;;
10383;SDS011;5238;43.508;4.980;2023-12-14T04:55:17;1.55;;;1.45;;
10383;SDS011;5238;43.508;4.980;2023-12-14T04:57:45;1.58;;;1.48;;
10383;SDS011;5238;43.508;4.980;2023-12-14T05:00:14;2.85;;;1.70;;
10383;SDS011;5238;43.508;4.980;2023-12-14T05:02:42;2.80;;;1.60;;
10383;SDS011;5238;43.508;4.980;2023-12-14T05:05:13;1.23;;;1.13;;
10383;SDS011;5238;43.508;4.980;2023-12-14T05:07:40;1.45;;;1.35;;
10383;SDS011;5238;43.508;4.980;2023-12-14T05:10:07;1.30;;;1.20;;
10383;SDS011;5238;43.508;4.980;2023-12-14T05:12:35;1.20;;;1.10;;
10383;SDS011;5238;43.508;4.980;2023-12-14T05:15:04;1.85;;;1.67;;
10383;SDS011;5238;43.508;4.980;2023-12-14T05:17:32;1.63;;;1.52;;
10383;SDS011;5238;43.508;4.980;2023-12-14T05:19:59;1.35;;;1.25;;
10383;SDS011;5238;43.508;4.980;2023-12-14T05:22:27;4.25;;;1.40;;
10383;SDS011;5238;43.508;4.980;2023-12-14T05:24:54;2.15;;;1.70;;
10383;SDS011;5238;43.508;4.980;2023-12-14T05:27:21;2.22;;;1.50;;
10383;SDS011;5238;43.508;4.980;2023-12-14T05:29:48;2.75;;;1.60;;
10383;SDS011;5238;43.508;4.980;2023-12-14T05:32:16;2.10;;;1.90;;
10383;SDS011;5238;43.508;4.980;2023-12-14T05:34:43;1.83;;;1.60;;
10383;SDS011;5238;43.508;4.980;2023-12-14T05:37:10;1.95;;;1.63;;
10383;SDS011;5238;43.508;4.980;2023-12-14T05:39:37;1.52;;;1.38;;
10383;SDS011;5238;43.508;4.980;2023-12-14T05:42:08;1.73;;;1.58;;
10383;SDS011;5238;43.508;4.980;2023-12-14T05:44:35;1.90;;;1.60;;
10383;SDS011;5238;43.508;4.980;2023-12-14T05:47:02;2.35;;;1.60;;
10383;SDS011;5238;43.508;4.980;2023-12-14T05:49:30;2.20;;;2.00;;
10383;SDS011;5238;43.508;4.980;2023-12-14T05:51:58;3.28;;;1.75;;
10383;SDS011;5238;43.508;4.980;2023-12-14T05:54:26;3.80;;;2.30;;
10383;SDS011;5238;43.508;4.980;2023-12-14T05:56:53;1.83;;;1.60;;
10383;SDS011;5238;43.508;4.980;2023-12-14T05:59:20;1.92;;;1.63;;
10383;SDS011;5238;43.508;4.980;2023-12-14T06:01:46;1.98;;;1.50;;
10383;SDS011;5238;43.508;4.980;2023-12-14T06:04:13;1.83;;;1.40;;
10383;SDS011;5238;43.508;4.980;2023-12-14T06:06:42;2.35;;;1.75;;
10383;SDS011;5238;43.508;4.980;2023-12-14T06:09:09;1.75;;;1.65;;
10383;SDS011;5238;43.508;4.980;2023-12-14T06:11:35;2.63;;;1.60;;
10383;SDS011;5238;43.508;4.980;2023-12-14T06:14:02;1.92;;;1.80;;
10383;SDS011;5238;43.508;4.980;2023-12-14T06:16:30;2.63;;;1.77;;
10383;SDS011;5238;43.508;4.980;2023-12-14T06:18:56;2.03;;;1.83;;
10383;SDS011;5238;43.508;4.980;2023-12-14T06:21:23;2.42;;;2.15;;
10383;SDS011;5238;43.508;4.980;2023-12-14T06:23:55;2.15;;;1.70;;
10383;SDS011;5238;43.508;4.980;2023-12-14T06:26:22;1.92;;;1.67;;
10383;SDS011;5238;43.508;4.980;2023-12-14T06:28:49;3.70;;;1.67;;
10383;SDS011;5238;43.508;4.980;2023-12-14T06:31:17;2.50;;;2.10;;
10383;SDS011;5238;43.508;4.980;2023-12-14T06:33:46;3.22;;;2.17;;
10383;SDS011;5238;43.508;4.980;2023-12-14T06:36:15;1.70;;;1.60;;
10383;SDS011;5238;43.508;4.980;2023-12-14T06:38:43;1.95;;;1.60;;
10383;SDS011;5238;43.508;4.980;2023-12-14T06:41:19;2.35;;;2.08;;
10383;SDS011;5238;43.508;4.980;2023-12-14T06:43:46;1.80;;;1.67;;
10383;SDS011;5238;43.508;4.980;2023-12-14T06:46:13;2.03;;;1.80;;
10383;SDS011;5238;43.508;4.980;2023-12-14T06:48:40;4.05;;;2.55;;
10383;SDS011;5238;43.508;4.980;2023-12-14T06:51:07;2.50;;;2.20;;
10383;SDS011;5238;43.508;4.980;2023-12-14T06:53:34;2.33;;;1.40;;
10383;SDS011;5238;43.508;4.980;2023-12-14T06:56:02;2.20;;;1.73;;
10383;SDS011;5238;43.508;4.980;2023-12-14T06:58:31;1.83;;;1.50;;
10383;SDS011;5238;43.508;4.980;2023-12-14T07:00:58;3.28;;;1.85;;
10383;SDS011;5238;43.508;4.980;2023-12-14T07:03:25;2.20;;;1.88;;
10383;SDS011;5238;43.508;4.980;2023-12-14T07:05:52;2.00;;;1.75;;
10383;SDS011;5238;43.508;4.980;2023-12-14T07:08:19;3.95;;;1.88;;
10383;SDS011;5238;43.508;4.980;2023-12-14T07:10:46;2.53;;;2.30;;
10383;SDS011;5238;43.508;4.980;2023-12-14T07:13:13;2.25;;;2.05;;
10383;SDS011;5238;43.508;4.980;2023-12-14T07:15:41;2.13;;;1.52;;
10383;SDS011;5238;43.508;4.980;2023-12-14T07:18:08;1.75;;;1.30;;
10383;SDS011;5238;43.508;4.980;2023-12-14T07:20:35;1.80;;;1.20;;
10383;SDS011;5238;43.508;4.980;2023-12-14T07:23:02;2.55;;;1.77;;
10383;SDS011;5238;43.508;4.980;2023-12-14T07:25:29;1.40;;;1.30;;
10383;SDS011;5238;43.508;4.980;2023-12-14T07:27:56;1.40;;;1.30;;
10383;SDS011;5238;43.508;4.980;2023-12-14T07:30:23;1.70;;;1.60;;
10383;SDS011;5238;43.508;4.980;2023-12-14T07:32:52;1.85;;;1.20;;
10383;SDS011;5238;43.508;4.980;2023-12-14T07:35:19;1.73;;;1.63;;
10383;SDS011;5238;43.508;4.980;2023-12-14T07:37:46;1.42;;;1.20;;
10383;SDS011;5238;43.508;4.980;2023-12-14T07:40:13;1.95;;;1.63;;
10383;SDS011;5238;43.508;4.980;2023-12-14T07:42:40;4.60;;;1.98;;
10383;SDS011;5238;43.508;4.980;2023-12-14T07:45:08;2.72;;;1.92;;
10383;SDS011;5238;43.508;4.980;2023-12-14T07:47:35;2.58;;;1.70;;
10383;SDS011;5238;43.508;4.980;2023-12-14T07:50:04;2.67;;;1.70;;
10383;SDS011;5238;43.508;4.980;2023-12-14T07:52:32;2.67;;;1.33;;
10383;SDS011;5238;43.508;4.980;2023-12-14T07:55:00;1.30;;;1.13;;
10383;SDS011;5238;43.508;4.980;2023-12-14T07:57:28;2.17;;;1.25;;
10383;SDS011;5238;43.508;4.980;2023-12-14T07:59:55;1.38;;;1.15;;
10383;SDS011;5238;43.508;4.980;2023-12-14T08:02:21;1.65;;;1.55;;
10383;SDS011;5238;43.508;4.980;2023-12-14T08:04:48;2.42;;;1.35;;
10383;SDS011;5238;43.508;4.980;2023-12-14T08:07:17;2.85;;;1.48;;
10383;SDS011;5238;43.508;4.980;2023-12-14T08:09:44;1.65;;;1.52;;
10383;SDS011;5238;43.508;4.980;2023-12-14T08:12:11;2.13;;;1.60;;
10383;SDS011;5238;43.508;4.980;2023-12-14T08:14:38;1.30;;;1.20;;
10383;SDS011;5238;43.508;4.980;2023-12-14T08:17:08;1.75;;;1.40;;
10383;SDS011;5238;43.508;4.980;2023-12-14T08:19:35;1.52;;;1.42;;
10383;SDS011;5238;43.508;4.980;2023-12-14T08:22:02;1.83;;;1.35;;
10383;SDS011;5238;43.508;4.980;2023-12-14T08:24:31;3.05;;;1.23;;
10383;SDS011;5238;43.508;4.980;2023-12-14T08:26:58;4.72;;;1.60;;
10383;SDS011;5238;43.508;4.980;2023-12-14T08:29:25;2.10;;;1.20;;
10383;SDS011;5238;43.508;4.980;2023-12-14T08:31:52;3.20;;;2.10;;
10383;SDS011;5238;43.508;4.980;2023-12-14T08:34:22;1.73;;;1.30;;
10383;SDS011;5238;43.508;4.980;2023-12-14T08:36:49;1.88;;;1.75;;
10383;SDS011;5238;43.508;4.980;2023-12-14T08:39:16;1.73;;;1.42;;
10383;SDS011;5238;43.508;4.980;2023-12-14T08:41:45;2.67;;;1.30;;
10383;SDS011;5238;43.508;4.980;2023-12-14T08:44:13;1.92;;;1.45;;
10383;SDS011;5238;43.508;4.980;2023-12-14T08:46:40;2.00;;;1.52;;
10383;SDS011;5238;43.508;4.980;2023-12-14T08:49:09;1.58;;;1.48;;
10383;SDS011;5238;43.508;4.980;2023-12-14T08:51:37;3.42;;;1.38;;
10383;SDS011;5238;43.508;4.980;2023-12-14T08:54:04;1.73;;;1.63;;
10383;SDS011;5238;43.508;4.980;2023-12-14T08:56:31;3.20;;;1.58;;
10383;SDS011;5238;43.508;4.980;2023-12-14T08:59:00;1.40;;;1.30;;
10383;SDS011;5238;43.508;4.980;2023-12-14T09:01:29;1.30;;;1.20;;
10383;SDS011;5238;43.508;4.980;2023-12-14T09:03:56;1.40;;;1.30;;
10383;SDS011;5238;43.508;4.980;2023-12-14T09:06:23;1.88;;;1.48;;
10383;SDS011;5238;43.508;4.980;2023-12-14T09:08:49;5.55;;;1.50;;
10383;SDS011;5238;43.508;4.980;2023-12-14T09:11:16;1.60;;;1.50;;
10383;SDS011;5238;43.508;4.980;2023-12-14T09:13:44;4.75;;;1.75;;
10383;SDS011;5238;43.508;4.980;2023-12-14T09:16:12;1.50;;;1.27;;
10383;SDS011;5238;43.508;4.980;2023-12-14T09:18:39;1.92;;;1.77;;
10383;SDS011;5238;43.508;4.980;2023-12-14T09:21:06;1.50;;;1.40;;
10383;SDS011;5238;43.508;4.980;2023-12-14T09:23:33;2.67;;;1.70;;
10383;SDS011;5238;43.508;4.980;2023-12-14T09:26:00;1.75;;;1.58;;
10383;SDS011;5238;43.508;4.980;2023-12-14T09:28:27;1.42;;;1.33;;
10383;SDS011;5238;43.508;4.980;2023-12-14T09:30:54;1.45;;;1.35;;
10383;SDS011;5238;43.508;4.980;2023-12-14T09:33:22;1.42;;;1.10;;
10383;SDS011;5238;43.508;4.980;2023-12-14T09:35:49;1.40;;;1.23;;
10383;SDS011;5238;43.508;4.980;2023-12-14T09:38:16;1.55;;;1.20;;
10383;SDS011;5238;43.508;4.980;2023-12-14T09:40:44;1.13;;;1.02;;
10383;SDS011;5238;43.508;4.980;2023-12-14T09:43:11;2.97;;;1.33;;
10383;SDS011;5238;43.508;4.980;2023-12-14T09:45:39;1.38;;;1.27;;
10383;SDS011;5238;43.508;4.980;2023-12-14T09:48:10;1.35;;;1.25;;
10383;SDS011;5238;43.508;4.980;2023-12-14T09:50:40;1.30;;;1.20;;
10383;SDS011;5238;43.508;4.980;2023-12-14T09:53:07;1.30;;;1.20;;
10383;SDS011;5238;43.508;4.980;2023-12-14T09:55:34;1.13;;;1.00;;
10383;SDS011;5238;43.508;4.980;2023-12-14T09:58:01;1.20;;;1.10;;
10383;SDS011;5238;43.508;4.980;2023-12-14T10:00:35;1.20;;;1.10;;
10383;SDS011;5238;43.508;4.980;2023-12-14T10:03:21;1.23;;;1.13;;
10383;SDS011;5238;43.508;4.980;2023-12-14T10:05:52;1.50;;;1.20;;
10383;SDS011;5238;43.508;4.980;2023-12-14T10:08:20;2.00;;;1.88;;
10383;SDS011;5238;43.508;4.980;2023-12-14T10:10:48;1.23;;;1.00;;
10383;SDS011;5238;43.508;4.980;2023-12-14T10:13:16;2.13;;;1.15;;
10383;SDS011;5238;43.508;4.980;2023-12-14T10:15:44;2.40;;;1.27;;
10383;SDS011;5238;43.508;4.980;2023-12-14T10:18:13;1.48;;;1.30;;
10383;SDS011;5238;43.508;4.980;2023-12-14T10:20:43;1.52;;;1.33;;
10383;SDS011;5238;43.508;4.980;2023-12-14T10:23:14;1.20;;;1.10;;
10383;SDS011;5238;43.508;4.980;2023-12-14T10:25:42;1.58;;;1.48;;
10383;SDS011;5238;43.508;4.980;2023-12-14T10:28:11;2.78;;;1.73;;
10383;SDS011;5238;43.508;4.980;2023-12-14T10:30:38;1.30;;;1.20;;
10383;SDS011;5238;43.508;4.980;2023-12-14T10:33:05;2.28;;;2.08;;
10383;SDS011;5238;43.508;4.980;2023-12-14T10:35:32;1.42;;;1.33;;
10383;SDS011;5238;43.508;4.980;2023-12-14T10:38:01;1.17;;;1.05;;
10383;SDS011;5238;43.508;4.980;2023-12-14T10:40:30;1.30;;;1.20;;
10383;SDS011;5238;43.508;4.980;2023-12-14T10:42:59;1.25;;;1.15;;
10383;SDS011;5238;43.508;4.980;2023-12-14T10:45:26;1.15;;;1.10;;
10383;SDS011;5238;43.508;4.980;2023-12-14T10:47:56;1.42;;;1.33;;
10383;SDS011;5238;43.508;4.980;2023-12-14T10:50:26;1.15;;;0.80;;
10383;SDS011;5238;43.508;4.980;2023-12-14T10:52:55;1.40;;;1.30;;
10383;SDS011;5238;43.508;4.980;2023-12-14T10:55:25;2.05;;;1.33;;
10383;SDS011;5238;43.508;4.980;2023-12-14T10:57:58;2.72;;;1.27;;
10383;SDS011;5238;43.508;4.980;2023-12-14T11:00:26;1.20;;;1.10;;
10383;SDS011;5238;43.508;4.980;2023-12-14T11:02:54;1.17;;;1.02;;
10383;SDS011;5238;43.508;4.980;2023-12-14T11:05:22;2.15;;;1.08;;
10383;SDS011;5238;43.508;4.980;2023-12-14T11:07:54;1.73;;;1.30;;
10383;SDS011;5238;43.508;4.980;2023-12-14T11:10:26;1.05;;;0.95;;
10383;SDS011;5238;43.508;4.980;2023-12-14T11:12:55;1.40;;;1.30;;
10383;SDS011;5238;43.508;4.980;2023-12-14T11:15:27;3.75;;;1.50;;
10383;SDS011;5238;43.508;4.980;2023-12-14T11:20:54;1.45;;;1.35;;
10383;SDS011;5238;43.508;4.980;2023-12-14T11:23:35;1.40;;;1.30;;
10383;SDS011;5238;43.508;4.980;2023-12-14T11:26:04;1.45;;;1.10;;
10383;SDS011;5238;43.508;4.980;2023-12-14T11:28:34;1.83;;;0.93;;
10383;SDS011;5238;43.508;4.980;2023-12-14T11:31:03;2.97;;;1.45;;
10383;SDS011;5238;43.508;4.980;2023-12-14T11:33:31;1.65;;;1.55;;
10383;SDS011;5238;43.508;4.980;2023-12-14T11:35:59;1.20;;;1.10;;
10383;SDS011;5238;43.508;4.980;2023-12-14T11:38:28;0.98;;;0.95;;
10383;SDS011;5238;43.508;4.980;2023-12-14T11:40:56;1.10;;;1.00;;
10383;SDS011;5238;43.508;4.980;2023-12-14T11:43:25;1.20;;;1.00;;
10383;SDS011;5238;43.508;4.980;2023-12-14T11:45:54;2.03;;;1.00;;
10383;SDS011;5238;43.508;4.980;2023-12-14T11:48:21;1.08;;;0.98;;
10383;SDS011;5238;43.508;4.980;2023-12-14T11:50:48;1.20;;;1.10;;
10383;SDS011;5238;43.508;4.980;2023-12-14T11:53:15;2.05;;;1.10;;
10383;SDS011;5238;43.508;4.980;2023-12-14T11:55:43;1.98;;;1.10;;
10383;SDS011;5238;43.508;4.980;2023-12-14T11:58:11;2.60;;;1.02;;
10383;SDS011;5238;43.508;4.980;2023-12-14T12:00:40;2.25;;;1.27;;
10383;SDS011;5238;43.508;4.980;2023-12-14T12:03:09;2.03;;;1.42;;
10383;SDS011;5238;43.508;4.980;2023-12-14T12:05:37;0.80;;;0.80;;
10383;SDS011;5238;43.508;4.980;2023-12-14T12:08:06;1.88;;;1.20;;
10383;SDS011;5238;43.508;4.980;2023-12-14T12:10:33;1.20;;;1.10;;
10383;SDS011;5238;43.508;4.980;2023-12-14T12:13:04;0.98;;;0.98;;
10383;SDS011;5238;43.508;4.980;2023-12-14T12:15:32;1.25;;;0.95;;
10383;SDS011;5238;43.508;4.980;2023-12-14T12:18:02;1.00;;;0.90;;
10383;SDS011;5238;43.508;4.980;2023-12-14T12:20:31;1.15;;;1.05;;
10383;SDS011;5238;43.508;4.980;2023-12-14T12:22:58;2.15;;;1.20;;
10383;SDS011;5238;43.508;4.980;2023-12-14T12:25:25;1.80;;;1.17;;
10383;SDS011;5238;43.508;4.980;2023-12-14T12:27:53;1.85;;;1.00;;
10383;SDS011;5238;43.508;4.980;2023-12-14T12:30:20;1.35;;;1.25;;
10383;SDS011;5238;43.508;4.980;2023-12-14T12:32:47;0.90;;;0.90;;
10383;SDS011;5238;43.508;4.980;2023-12-14T12:35:16;1.23;;;1.13;;
10383;SDS011;5238;43.508;4.980;2023-12-14T12:37:44;1.00;;;1.00;;
10383;SDS011;5238;43.508;4.980;2023-12-14T12:40:12;2.10;;;1.17;;
10383;SDS011;5238;43.508;4.980;2023-12-14T12:42:41;0.90;;;0.85;;
10383;SDS011;5238;43.508;4.980;2023-12-14T12:45:08;1.85;;;0.88;;
10383;SDS011;5238;43.508;4.980;2023-12-14T12:47:36;1.15;;;1.10;;
10383;SDS011;5238;43.508;4.980;2023-12-14T12:50:04;1.23;;;1.02;;
10383;SDS011;5238;43.508;4.980;2023-12-14T12:52:32;1.20;;;1.10;;
10383;SDS011;5238;43.508;4.980;2023-12-14T12:55:00;1.50;;;1.25;;
10383;SDS011;5238;43.508;4.980;2023-12-14T12:57:27;1.15;;;1.13;;
10383;SDS011;5238;43.508;4.980;2023-12-14T12:59:55;1.00;;;0.80;;
10383;SDS011;5238;43.508;4.980;2023-12-14T13:02:21;1.00;;;0.90;;
10383;SDS011;5238;43.508;4.980;2023-12-14T13:04:48;3.08;;;1.27;;
10383;SDS011;5238;43.508;4.980;2023-12-14T13:07:16;1.38;;;1.27;;
10383;SDS011;5238;43.508;4.980;2023-12-14T13:09:43;1.00;;;1.00;;
10383;SDS011;5238;43.508;4.980;2023-12-14T13:12:12;1.10;;;1.10;;
10383;SDS011;5238;43.508;4.980;2023-12-14T13:14:39;1.17;;;1.00;;
10383;SDS011;5238;43.508;4.980;2023-12-14T13:17:06;1.35;;;1.25;;
10383;SDS011;5238;43.508;4.980;2023-12-14T13:19:33;2.90;;;1.10;;
10383;SDS011;5238;43.508;4.980;2023-12-14T13:22:00;0.90;;;0.90;;
10383;SDS011;5238;43.508;4.980;2023-12-14T13:24:28;1.00;;;0.95;;
10383;SDS011;5238;43.508;4.980;2023-12-14T13:26:55;1.15;;;1.10;;
10383;SDS011;5238;43.508;4.980;2023-12-14T13:29:23;0.90;;;0.90;;
10383;SDS011;5238;43.508;4.980;2023-12-14T13:31:50;1.38;;;1.27;;
10383;SDS011;5238;43.508;4.980;2023-12-14T13:34:17;1.45;;;1.35;;
10383;SDS011;5238;43.508;4.980;2023-12-14T13:36:44;1.10;;;1.00;;
10383;SDS011;5238;43.508;4.980;2023-12-14T13:39:12;0.80;;;0.80;;
10383;SDS011;5238;43.508;4.980;2023-12-14T13:41:39;1.05;;;0.90;;
10383;SDS011;5238;43.508;4.980;2023-12-14T13:44:06;1.50;;;1.40;;
10383;SDS011;5238;43.508;4.980;2023-12-14T13:46:34;1.13;;;0.90;;
10383;SDS011;5238;43.508;4.980;2023-12-14T13:49:01;1.33;;;1.23;;
10383;SDS011;5238;43.508;4.980;2023-12-14T13:51:28;1.80;;;1.02;;
10383;SDS011;5238;43.508;4.980;2023-12-14T13:53:55;0.95;;;0.90;;
10383;SDS011;5238;43.508;4.980;2023-12-14T13:56:22;1.00;;;1.00;;
10383;SDS011;5238;43.508;4.980;2023-12-14T13:58:49;0.73;;;0.70;;
10383;SDS011;5238;43.508;4.980;2023-12-14T14:01:17;2.40;;;0.90;;
10383;SDS011;5238;43.508;4.980;2023-12-14T14:03:45;1.15;;;1.05;;
10383;SDS011;5238;43.508;4.980;2023-12-14T14:06:13;1.15;;;1.05;;
10383;SDS011;5238;43.508;4.980;2023-12-14T14:08:40;0.90;;;0.90;;
10383;SDS011;5238;43.508;4.980;2023-12-14T14:11:07;1.58;;;1.08;;
10383;SDS011;5238;43.508;4.980;2023-12-14T14:13:34;0.80;;;0.80;;
10383;SDS011;5238;43.508;4.980;2023-12-14T14:16:01;1.40;;;0.93;;
10383;SDS011;5238;43.508;4.980;2023-12-14T14:18:29;0.90;;;0.80;;
10383;SDS011;5238;43.508;4.980;2023-12-14T14:20:58;1.27;;;1.17;;
10383;SDS011;5238;43.508;4.980;2023-12-14T14:23:26;1.20;;;1.10;;
10383;SDS011;5238;43.508;4.980;2023-12-14T14:25:53;0.80;;;0.80;;
10383;SDS011;5238;43.508;4.980;2023-12-14T14:28:20;1.05;;;1.05;;
10383;SDS011;5238;43.508;4.980;2023-12-14T14:30:47;1.02;;;1.02;;
10383;SDS011;5238;43.508;4.980;2023-12-14T14:33:14;0.88;;;0.88;;
10383;SDS011;5238;43.508;4.980;2023-12-14T14:35:43;1.00;;;1.00;;
10383;SDS011;5238;43.508;4.980;2023-12-14T14:38:11;1.00;;;0.75;;
10383;SDS011;5238;43.508;4.980;2023-12-14T14:40:38;0.80;;;0.80;;
10383;SDS011;5238;43.508;4.980;2023-12-14T14:43:06;1.13;;;1.02;;
10383;SDS011;5238;43.508;4.980;2023-12-14T14:45:34;1.13;;;1.13;;
10383;SDS011;5238;43.508;4.980;2023-12-14T14:48:03;1.10;;;1.00;;
10383;SDS011;5238;43.508;4.980;2023-12-14T14:50:33;1.88;;;1.25;;
10383;SDS011;5238;43.508;4.980;2023-12-14T14:53:00;1.15;;;0.90;;
10383;SDS011;5238;43.508;4.980;2023-12-14T14:55:28;1.08;;;1.00;;
10383;SDS011;5238;43.508;4.980;2023-12-14T14:57:55;1.60;;;1.50;;
10383;SDS011;5238;43.508;4.980;2023-12-14T15:00:22;1.67;;;1.05;;
10383;SDS011;5238;43.508;4.980;2023-12-14T15:02:50;1.38;;;1.20;;
10383;SDS011;5238;43.508;4.980;2023-12-14T15:05:17;1.40;;;1.10;;